createdAt,value
2018-04-19T00:00:24.588Z,16.40
2018-04-19T00:02:52.055Z,16.40
2018-04-19T00:05:19.527Z,16.30
2018-04-19T00:07:47.780Z,16.30
2018-04-19T00:10:15.259Z,16.30
2018-04-19T00:12:42.739Z,16.30
2018-04-19T00:15:10.984Z,16.20
2018-04-19T00:17:38.448Z,16.20
2018-04-19T00:20:06.714Z,16.20
2018-04-19T00:22:34.221Z,16.10
2018-04-19T00:25:01.705Z,16.20
2018-04-19T00:27:29.183Z,16.20
2018-04-19T00:29:56.749Z,16.20
2018-04-19T00:32:25.024Z,16.20
2018-04-19T00:34:52.514Z,16.10
2018-04-19T00:37:20.048Z,16.10
2018-04-19T00:39:48.317Z,16.00
2018-04-19T00:42:15.784Z,16.00
2018-04-19T00:44:44.039Z,16.00
2018-04-19T00:47:11.619Z,15.90
2018-04-19T00:49:39.888Z,16.00
2018-04-19T00:52:08.163Z,16.00
2018-04-19T00:54:35.623Z,15.90
2018-04-19T00:57:03.940Z,15.90
2018-04-19T00:59:31.408Z,15.90
2018-04-19T01:01:58.892Z,15.90
2018-04-19T01:04:26.410Z,15.90
2018-04-19T01:06:53.911Z,15.80
2018-04-19T01:09:21.391Z,15.80
2018-04-19T01:11:49.642Z,15.80
2018-04-19T01:14:17.200Z,15.70
2018-04-19T01:16:44.687Z,15.80
2018-04-19T01:19:13.035Z,15.80
2018-04-19T01:21:40.514Z,15.70
2018-04-19T01:24:08.755Z,15.80
2018-04-19T01:26:36.284Z,15.70
2018-04-19T01:29:03.769Z,15.70
2018-04-19T01:31:31.263Z,15.70
2018-04-19T01:33:59.505Z,15.60
2018-04-19T01:36:27.080Z,15.60
2018-04-19T01:38:54.558Z,15.60
2018-04-19T01:41:22.807Z,15.50
2018-04-19T01:43:50.280Z,15.50
2018-04-19T01:46:18.530Z,15.50
2018-04-19T01:48:46.124Z,15.40
2018-04-19T01:51:14.385Z,15.50
2018-04-19T01:53:42.637Z,15.50
2018-04-19T01:56:10.122Z,15.40
2018-04-19T01:58:38.370Z,15.40
2018-04-19T02:01:05.948Z,15.30
2018-04-19T02:03:33.505Z,15.30
2018-04-19T02:06:01.065Z,15.30
2018-04-19T02:08:28.535Z,15.30
2018-04-19T02:10:56.763Z,15.30
2018-04-19T02:13:24.247Z,15.20
2018-04-19T02:15:51.815Z,15.20
2018-04-19T02:18:19.291Z,15.20
2018-04-19T02:20:47.554Z,15.10
2018-04-19T02:23:15.815Z,15.10
2018-04-19T02:25:43.324Z,15.10
2018-04-19T02:28:10.831Z,15.10
2018-04-19T02:30:38.312Z,15.10
2018-04-19T02:33:06.582Z,15.10
2018-04-19T02:35:34.133Z,15.00
2018-04-19T02:38:01.684Z,15.00
2018-04-19T02:40:29.243Z,14.90
2018-04-19T02:42:56.795Z,14.90
2018-04-19T02:45:24.269Z,14.80
2018-04-19T02:47:52.531Z,14.80
2018-04-19T02:50:20.007Z,14.70
2018-04-19T02:52:48.240Z,14.70
2018-04-19T02:55:15.739Z,14.70
2018-04-19T02:57:44.049Z,14.70
2018-04-19T03:00:11.528Z,14.60
2018-04-19T03:02:39.120Z,14.70
2018-04-19T03:05:06.595Z,14.70
2018-04-19T03:07:34.847Z,14.70
2018-04-19T03:10:02.414Z,14.60
2018-04-19T03:12:29.922Z,14.70
2018-04-19T03:14:57.409Z,14.60
2018-04-19T03:17:24.907Z,14.60
2018-04-19T03:19:53.144Z,14.60
2018-04-19T03:22:20.611Z,14.50
2018-04-19T03:24:48.090Z,14.60
2018-04-19T03:27:16.322Z,14.50
2018-04-19T03:29:43.795Z,14.40
2018-04-19T03:32:11.259Z,14.50
2018-04-19T03:34:38.766Z,14.50
2018-04-19T03:37:06.283Z,14.40
2018-04-19T03:39:34.530Z,14.40
2018-04-19T03:42:02.014Z,14.40
2018-04-19T03:44:29.487Z,14.40
2018-04-19T03:46:57.727Z,14.30
2018-04-19T03:49:25.196Z,14.30
2018-04-19T03:51:52.750Z,14.30
2018-04-19T03:54:20.239Z,14.30
2018-04-19T03:56:48.475Z,14.20
2018-04-19T03:59:16.039Z,14.20
2018-04-19T04:01:44.317Z,14.30
2018-04-19T04:04:11.807Z,14.30
2018-04-19T04:06:39.280Z,14.30
2018-04-19T04:09:06.755Z,14.30
2018-04-19T04:11:34.256Z,14.30
2018-04-19T04:14:01.739Z,14.30
2018-04-19T04:16:41.208Z,14.30
2018-04-19T04:19:20.688Z,14.20
2018-04-19T04:24:47.696Z,14.20
2018-04-19T04:27:15.171Z,14.20
2018-04-19T04:29:42.659Z,14.20
2018-04-19T04:32:10.219Z,14.30
2018-04-19T04:34:37.679Z,14.30
2018-04-19T04:37:05.249Z,14.30
2018-04-19T04:39:33.519Z,14.30
2018-04-19T04:42:00.995Z,14.20
2018-04-19T04:44:29.239Z,14.30
2018-04-19T04:46:56.724Z,14.30
2018-04-19T04:49:25.113Z,14.40
2018-04-19T04:51:52.562Z,14.30
2018-04-19T04:54:20.059Z,14.40
2018-04-19T04:56:47.551Z,14.50
2018-04-19T04:59:15.111Z,14.50
2018-04-19T05:01:42.615Z,14.60
2018-04-19T05:04:10.117Z,14.60
2018-04-19T05:06:37.630Z,14.70
2018-04-19T05:09:05.092Z,14.70
2018-04-19T05:11:32.564Z,14.80
2018-04-19T05:14:00.043Z,14.80
2018-04-19T05:16:27.515Z,14.90
2018-04-19T05:18:54.990Z,15.00
2018-04-19T05:21:23.219Z,15.20
2018-04-19T05:23:50.746Z,15.10
2018-04-19T05:26:18.299Z,15.20
2018-04-19T05:28:46.511Z,15.40
2018-04-19T05:31:13.997Z,15.40
2018-04-19T05:33:42.234Z,15.60
2018-04-19T05:36:09.739Z,15.60
2018-04-19T05:38:37.988Z,15.80
2018-04-19T05:41:05.527Z,15.70
2018-04-19T05:43:33.008Z,15.90
2018-04-19T05:46:00.488Z,16.00
2018-04-19T05:48:28.715Z,16.20
2018-04-19T05:50:56.411Z,16.10
2018-04-19T05:53:23.835Z,16.30
2018-04-19T05:55:51.314Z,16.40
2018-04-19T05:58:18.800Z,16.50
2018-04-19T06:00:47.027Z,16.70
2018-04-19T06:03:14.510Z,16.70
2018-04-19T06:05:42.065Z,16.90
2018-04-19T06:08:09.531Z,17.00
2018-04-19T06:10:37.775Z,17.20
2018-04-19T06:13:05.360Z,17.20
2018-04-19T06:15:32.917Z,17.30
2018-04-19T06:18:00.457Z,17.40
2018-04-19T06:20:28.896Z,17.70
2018-04-19T06:22:56.378Z,17.60
2018-04-19T06:25:23.871Z,17.80
2018-04-19T06:27:51.476Z,17.90
2018-04-19T06:30:18.960Z,18.10
2018-04-19T06:32:46.441Z,18.10
2018-04-19T06:35:14.681Z,18.10
2018-04-19T06:37:42.350Z,18.00
2018-04-19T06:40:09.824Z,18.10
2018-04-19T06:42:37.322Z,18.20
2018-04-19T06:45:04.804Z,18.30
2018-04-19T06:47:32.274Z,18.30
2018-04-19T06:49:59.739Z,18.40
2018-04-19T06:52:27.228Z,18.50
2018-04-19T06:54:54.789Z,18.70
2018-04-19T06:57:22.265Z,18.80
2018-04-19T06:59:49.772Z,19.00
2018-04-19T07:02:17.252Z,19.10
2018-04-19T07:04:44.733Z,19.20
2018-04-19T07:07:12.963Z,19.50
2018-04-19T07:09:40.444Z,19.50
2018-04-19T07:12:07.935Z,19.70
2018-04-19T07:14:35.423Z,19.80
2018-04-19T07:17:02.963Z,19.90
2018-04-19T07:19:30.589Z,19.90
2018-04-19T07:21:58.951Z,20.10
2018-04-19T07:24:28.066Z,20.00
2018-04-19T07:26:56.440Z,20.00
2018-04-19T07:29:24.803Z,20.10
2018-04-19T07:31:52.289Z,20.00
2018-04-19T07:34:19.869Z,20.20
2018-04-19T07:36:47.431Z,20.20
2018-04-19T07:39:15.027Z,20.20
2018-04-19T07:41:44.124Z,20.30
2018-04-19T07:44:11.774Z,20.30
2018-04-19T07:46:39.473Z,20.50
2018-04-19T07:49:07.925Z,20.60
2018-04-19T07:51:35.451Z,20.60
2018-04-19T07:54:03.070Z,20.70
2018-04-19T07:56:31.429Z,20.80
2018-04-19T07:58:58.973Z,20.80
2018-04-19T08:01:26.537Z,20.60
2018-04-19T08:03:54.125Z,20.60
2018-04-19T08:06:22.402Z,20.80
2018-04-19T08:08:50.811Z,20.90
2018-04-19T08:11:18.359Z,20.80
2018-04-19T08:13:46.633Z,21.10
2018-04-19T08:16:14.201Z,21.00
2018-04-19T08:18:41.664Z,21.10
2018-04-19T08:21:09.127Z,21.20
2018-04-19T08:23:36.583Z,21.40
2018-04-19T08:26:04.071Z,21.50
2018-04-19T08:28:31.530Z,21.60
2018-04-19T08:30:59.090Z,21.60
2018-04-19T08:33:26.606Z,21.60
2018-04-19T08:35:54.086Z,21.50
2018-04-19T08:38:21.559Z,21.80
2018-04-19T08:40:49.135Z,21.80
2018-04-19T08:43:16.602Z,21.90
2018-04-19T08:45:44.835Z,22.40
2018-04-19T08:48:12.330Z,22.30
2018-04-19T08:50:39.838Z,22.70
2018-04-19T08:53:07.322Z,23.20
2018-04-19T08:55:34.883Z,23.60
2018-04-19T08:58:03.131Z,24.40
2018-04-19T09:00:30.593Z,24.30
2018-04-19T09:02:58.435Z,24.60
2018-04-19T09:05:26.404Z,24.90
2018-04-19T09:07:54.277Z,25.20
2018-04-19T09:10:24.864Z,25.90
2018-04-19T09:12:53.726Z,25.90
2018-04-19T09:15:21.701Z,26.20
2018-04-19T09:17:50.350Z,25.30
2018-04-19T09:20:18.319Z,25.30
2018-04-19T09:22:45.832Z,25.30
2018-04-19T09:25:14.059Z,25.60
2018-04-19T09:27:41.534Z,25.60
2018-04-19T09:30:08.996Z,25.50
2018-04-19T09:32:36.460Z,25.60
2018-04-19T09:35:03.970Z,25.70
2018-04-19T09:37:31.471Z,26.20
2018-04-19T09:39:59.751Z,27.20
2018-04-19T09:42:27.330Z,27.10
2018-04-19T09:44:55.576Z,27.70
2018-04-19T09:47:23.043Z,27.70
2018-04-19T09:49:50.520Z,28.00
2018-04-19T09:52:18.740Z,28.10
2018-04-19T09:54:46.238Z,28.00
2018-04-19T09:57:13.803Z,27.70
2018-04-19T09:59:41.268Z,27.80
2018-04-19T10:02:09.509Z,28.60
2018-04-19T10:04:36.966Z,28.50
2018-04-19T10:07:04.538Z,28.90
2018-04-19T10:09:32.812Z,29.40
2018-04-19T10:12:00.275Z,29.30
2018-04-19T10:14:28.517Z,29.30
2018-04-19T10:16:56.010Z,29.30
2018-04-19T10:19:23.509Z,28.40
2018-04-19T10:21:51.408Z,28.20
2018-04-19T10:24:18.874Z,28.50
2018-04-19T10:26:46.440Z,28.90
2018-04-19T10:29:14.712Z,29.00
2018-04-19T10:31:42.275Z,29.00
2018-04-19T10:34:11.263Z,28.00
2018-04-19T10:36:39.621Z,28.10
2018-04-19T10:39:07.281Z,28.00
2018-04-19T10:41:34.882Z,28.50
2018-04-19T10:44:03.564Z,28.70
2018-04-19T10:46:31.803Z,29.00
2018-04-19T10:48:59.312Z,29.00
2018-04-19T10:51:27.673Z,29.70
2018-04-19T10:53:55.930Z,30.40
2018-04-19T10:56:23.398Z,30.30
2018-04-19T10:58:50.905Z,30.70
2018-04-19T11:01:18.407Z,30.80
2018-04-19T11:03:46.641Z,29.80
2018-04-19T11:06:14.108Z,29.70
2018-04-19T11:08:41.603Z,29.40
2018-04-19T11:11:09.847Z,29.60
2018-04-19T11:13:37.307Z,29.50
2018-04-19T11:16:04.914Z,29.20
2018-04-19T11:18:33.139Z,29.20
2018-04-19T11:21:00.622Z,29.10
2018-04-19T11:23:29.595Z,29.30
2018-04-19T11:25:57.051Z,29.30
2018-04-19T11:28:24.620Z,29.30
2018-04-19T11:30:53.522Z,29.40
2018-04-19T11:33:21.041Z,29.40
2018-04-19T11:35:48.516Z,29.50
2018-04-19T11:38:16.013Z,29.70
2018-04-19T11:40:44.236Z,29.30
2018-04-19T11:43:11.707Z,29.30
2018-04-19T11:45:39.202Z,29.50
2018-04-19T11:48:07.462Z,30.00
2018-04-19T11:50:35.005Z,29.90
2018-04-19T11:53:02.520Z,30.10
2018-04-19T11:55:29.989Z,30.30
2018-04-19T11:57:57.471Z,30.50
2018-04-19T12:00:24.944Z,30.40
2018-04-19T12:02:52.480Z,30.40
2018-04-19T12:05:19.948Z,30.30
2018-04-19T12:07:47.441Z,30.00
2018-04-19T12:10:15.668Z,30.30
2018-04-19T12:12:43.201Z,30.20
2018-04-19T12:15:10.708Z,30.40
2018-04-19T12:17:38.267Z,30.50
2018-04-19T12:20:06.504Z,30.30
2018-04-19T12:22:33.988Z,30.20
2018-04-19T12:25:02.224Z,30.30
2018-04-19T12:27:29.715Z,30.20
2018-04-19T12:29:57.177Z,30.30
2018-04-19T12:32:25.415Z,29.70
2018-04-19T12:34:52.899Z,29.60
2018-04-19T12:37:20.471Z,29.10
2018-04-19T12:39:48.092Z,29.20
2018-04-19T12:42:15.554Z,29.30
2018-04-19T12:44:43.107Z,29.60
2018-04-19T12:47:10.571Z,29.70
2018-04-19T12:49:38.047Z,29.60
2018-04-19T12:52:06.171Z,29.60
2018-04-19T12:54:33.645Z,29.60
2018-04-19T12:57:01.111Z,29.60
2018-04-19T12:59:28.606Z,29.70
2018-04-19T13:01:56.173Z,29.80
2018-04-19T13:04:23.784Z,29.90
2018-04-19T13:06:51.265Z,29.70
2018-04-19T13:09:18.736Z,29.60
2018-04-19T13:11:46.318Z,29.50
2018-04-19T13:14:14.571Z,29.60
2018-04-19T13:16:42.060Z,29.50
2018-04-19T13:19:10.300Z,29.60
2018-04-19T13:21:38.286Z,29.60
2018-04-19T13:24:05.747Z,29.70
2018-04-19T13:26:34.003Z,29.70
2018-04-19T13:29:02.298Z,28.90
2018-04-19T13:31:30.547Z,28.90
2018-04-19T13:33:58.112Z,28.90
2018-04-19T13:36:25.569Z,29.10
2018-04-19T13:38:53.128Z,29.40
2018-04-19T13:41:20.583Z,29.00
2018-04-19T13:43:48.047Z,29.00
2018-04-19T13:46:15.599Z,29.40
2018-04-19T13:48:43.200Z,29.70
2018-04-19T13:51:11.399Z,30.20
2018-04-19T13:53:38.883Z,30.20
2018-04-19T13:56:06.355Z,30.10
2018-04-19T13:58:33.819Z,30.20
2018-04-19T14:01:01.318Z,30.20
2018-04-19T14:03:28.817Z,30.40
2018-04-19T14:05:56.279Z,30.20
2018-04-19T14:08:23.750Z,30.30
2018-04-19T14:10:51.979Z,30.60
2018-04-19T14:13:19.468Z,30.60
2018-04-19T14:15:46.915Z,30.60
2018-04-19T14:18:14.387Z,30.70
2018-04-19T14:20:41.945Z,30.70
2018-04-19T14:23:09.415Z,30.70
2018-04-19T14:25:37.643Z,30.80
2018-04-19T14:28:05.123Z,30.70
2018-04-19T14:30:32.659Z,31.00
2018-04-19T14:33:00.127Z,31.10
2018-04-19T14:35:27.717Z,31.20
2018-04-19T14:37:55.179Z,31.30
2018-04-19T14:40:23.434Z,31.00
2018-04-19T14:42:52.451Z,30.80
2018-04-19T14:45:20.761Z,30.40
2018-04-19T14:47:48.226Z,30.40
2018-04-19T14:50:15.715Z,30.40
2018-04-19T14:52:43.271Z,30.40
2018-04-19T14:55:10.739Z,30.40
2018-04-19T14:57:38.208Z,30.40
2018-04-19T15:00:06.440Z,30.80
2018-04-19T15:02:33.899Z,30.70
2018-04-19T15:05:01.359Z,30.80
2018-04-19T15:07:28.830Z,31.00
2018-04-19T15:09:56.287Z,31.20
2018-04-19T15:12:24.567Z,31.10
2018-04-19T15:14:52.023Z,31.00
2018-04-19T15:17:19.524Z,31.10
2018-04-19T15:19:47.040Z,31.20
2018-04-19T15:22:14.495Z,31.30
2018-04-19T15:24:42.054Z,31.40
2018-04-19T15:27:09.511Z,31.50
2018-04-19T15:29:37.760Z,31.20
2018-04-19T15:32:05.248Z,31.10
2018-04-19T15:34:32.905Z,31.20
2018-04-19T15:37:00.359Z,31.30
2018-04-19T15:39:27.826Z,31.20
2018-04-19T15:41:55.371Z,31.30
2018-04-19T15:44:22.827Z,31.10
2018-04-19T15:46:50.444Z,31.00
2018-04-19T15:49:17.908Z,31.00
2018-04-19T15:51:45.403Z,30.80
2018-04-19T15:54:13.693Z,30.80
2018-04-19T15:56:41.240Z,30.80
2018-04-19T15:59:08.806Z,30.80
2018-04-19T16:01:36.357Z,30.80
2018-04-19T16:04:04.631Z,30.90
2018-04-19T16:06:32.131Z,30.80
2018-04-19T16:08:59.702Z,30.80
2018-04-19T16:11:27.159Z,30.90
2018-04-19T16:13:54.639Z,31.00
2018-04-19T16:16:22.119Z,30.90
2018-04-19T16:18:50.384Z,30.90
2018-04-19T16:21:17.855Z,30.90
2018-04-19T16:23:45.306Z,30.80
2018-04-19T16:26:12.877Z,30.70
2018-04-19T16:28:40.339Z,30.70
2018-04-19T16:31:08.591Z,30.70
2018-04-19T16:33:36.114Z,30.70
2018-04-19T16:36:03.668Z,30.70
2018-04-19T16:38:31.120Z,30.50
2018-04-19T16:40:58.603Z,30.40
2018-04-19T16:43:26.072Z,30.20
2018-04-19T16:45:53.543Z,30.10
2018-04-19T16:48:21.102Z,30.00
2018-04-19T16:50:49.368Z,29.70
2018-04-19T16:53:16.841Z,29.60
2018-04-19T16:55:45.142Z,29.60
2018-04-19T16:58:13.367Z,29.60
2018-04-19T17:00:40.831Z,29.50
2018-04-19T17:03:08.398Z,29.50
2018-04-19T17:05:35.967Z,29.40
2018-04-19T17:08:04.186Z,29.40
2018-04-19T17:10:31.655Z,29.40
2018-04-19T17:12:59.125Z,29.60
2018-04-19T17:15:26.661Z,29.70
2018-04-19T17:17:54.119Z,29.60
2018-04-19T17:20:21.595Z,29.50
2018-04-19T17:22:49.067Z,29.30
2018-04-19T17:25:16.636Z,29.00
2018-04-19T17:27:44.183Z,28.60
2018-04-19T17:30:11.748Z,28.20
2018-04-19T17:32:39.391Z,27.90
2018-04-19T17:35:06.863Z,27.60
2018-04-19T17:37:34.411Z,27.30
2018-04-19T17:40:01.979Z,27.10
2018-04-19T17:42:29.440Z,26.90
2018-04-19T17:44:57.023Z,26.70
2018-04-19T17:47:25.248Z,26.40
2018-04-19T17:49:52.723Z,26.30
2018-04-19T17:52:20.195Z,26.20
2018-04-19T17:54:47.751Z,26.00
2018-04-19T17:57:15.207Z,25.90
2018-04-19T17:59:42.777Z,25.70
2018-04-19T18:02:11.032Z,25.40
2018-04-19T18:04:38.504Z,25.30
2018-04-19T18:07:05.974Z,25.30
2018-04-19T18:09:34.195Z,24.90
2018-04-19T18:12:01.667Z,24.90
2018-04-19T18:14:29.118Z,24.80
2018-04-19T18:16:56.613Z,24.70
2018-04-19T18:19:24.077Z,24.60
2018-04-19T18:21:52.310Z,24.40
2018-04-19T18:24:19.767Z,24.30
2018-04-19T18:26:47.257Z,24.20
2018-04-19T18:29:15.522Z,24.10
2018-04-19T18:31:43.084Z,24.00
2018-04-19T18:34:10.535Z,24.00
2018-04-19T18:36:37.999Z,23.90
2018-04-19T18:39:05.492Z,23.80
2018-04-19T18:41:32.999Z,23.70
2018-04-19T18:44:00.464Z,23.60
2018-04-19T18:46:27.974Z,23.50
2018-04-19T18:48:55.432Z,23.30
2018-04-19T18:51:22.948Z,23.20
2018-04-19T18:53:50.404Z,23.10
2018-04-19T18:56:18.009Z,23.20
2018-04-19T18:58:45.488Z,23.10
2018-04-19T19:01:12.991Z,23.10
2018-04-19T19:03:41.270Z,23.10
2018-04-19T19:06:08.699Z,23.00
2018-04-19T19:08:36.259Z,23.10
2018-04-19T19:11:03.983Z,23.10
2018-04-19T19:13:31.451Z,23.10
2018-04-19T19:16:13.798Z,23.10
2018-04-19T19:18:53.771Z,23.10
2018-04-19T19:21:21.229Z,23.00
2018-04-19T19:23:48.746Z,23.00
2018-04-19T19:26:16.203Z,23.00
2018-04-19T19:28:43.721Z,23.00
2018-04-19T19:31:11.182Z,23.00
2018-04-19T19:33:38.645Z,22.90
2018-04-19T19:36:06.135Z,22.90
2018-04-19T19:38:33.598Z,22.70
2018-04-19T19:41:01.906Z,22.60
2018-04-19T19:43:29.425Z,22.60
2018-04-19T19:45:56.892Z,22.60
2018-04-19T19:48:25.143Z,22.50
2018-04-19T19:50:52.614Z,22.50
2018-04-19T19:53:20.075Z,22.50
2018-04-19T19:55:47.736Z,22.40
2018-04-19T19:58:15.211Z,22.40
2018-04-19T20:00:43.456Z,22.30
2018-04-19T20:03:11.010Z,22.30
2018-04-19T20:05:38.471Z,22.30
2018-04-19T20:08:05.955Z,22.20
2018-04-19T20:10:34.231Z,22.10
2018-04-19T20:13:02.484Z,22.00
2018-04-19T20:15:29.960Z,22.00
2018-04-19T20:17:58.187Z,21.90
2018-04-19T20:20:25.673Z,21.80
2018-04-19T20:22:53.123Z,21.80
2018-04-19T20:25:20.648Z,21.80
2018-04-19T20:27:48.210Z,21.70
2018-04-19T20:30:15.675Z,21.70
2018-04-19T20:32:43.143Z,21.60
2018-04-19T20:35:10.610Z,21.60
2018-04-19T20:37:39.616Z,21.40
2018-04-19T20:40:07.086Z,21.40
2018-04-19T20:42:35.361Z,21.40
2018-04-19T20:45:03.596Z,21.30
2018-04-19T20:47:31.093Z,21.30
2018-04-19T20:49:59.323Z,21.20
2018-04-19T20:52:26.818Z,21.20
2018-04-19T20:54:54.279Z,21.20
2018-04-19T20:57:22.578Z,21.10
2018-04-19T20:59:50.046Z,21.10
2018-04-19T21:02:17.507Z,21.10
2018-04-19T21:04:44.984Z,21.10
2018-04-19T21:07:12.443Z,21.00
2018-04-19T21:09:39.907Z,21.00
2018-04-19T21:12:07.486Z,20.90
2018-04-19T21:14:34.964Z,20.90
2018-04-19T21:17:03.192Z,20.80
2018-04-19T21:19:30.647Z,20.70
2018-04-19T21:21:58.122Z,20.70
2018-04-19T21:24:25.603Z,20.70
2018-04-19T21:26:53.076Z,20.60
2018-04-19T21:29:20.541Z,20.60
2018-04-19T21:31:48.029Z,20.50
2018-04-19T21:34:15.535Z,20.40
2018-04-19T21:36:43.790Z,20.30
2018-04-19T21:39:11.263Z,20.30
2018-04-19T21:41:39.508Z,20.30
2018-04-19T21:44:06.977Z,20.20
2018-04-19T21:46:34.599Z,20.20
2018-04-19T21:49:02.067Z,20.20
2018-04-19T21:51:29.538Z,20.20
2018-04-19T21:53:57.005Z,20.20
2018-04-19T21:56:24.459Z,20.20
2018-04-19T21:58:52.018Z,20.20
2018-04-19T22:01:20.247Z,20.20
2018-04-19T22:03:47.731Z,20.20
2018-04-19T22:06:15.209Z,20.20
2018-04-19T22:08:42.767Z,20.20
2018-04-19T22:11:10.379Z,20.20
2018-04-19T22:13:37.834Z,20.10
2018-04-19T22:16:05.332Z,20.10
2018-04-19T22:18:33.563Z,20.00
2018-04-19T22:21:01.040Z,20.00
2018-04-19T22:23:28.532Z,20.00
2018-04-19T22:25:56.009Z,20.00
2018-04-19T22:28:24.260Z,20.00
2018-04-19T22:30:51.744Z,19.90
2018-04-19T22:33:20.047Z,19.80
2018-04-19T22:35:47.526Z,19.80
2018-04-19T22:38:15.006Z,19.70
2018-04-19T22:40:42.467Z,19.70
2018-04-19T22:43:09.947Z,19.60
2018-04-19T22:45:38.175Z,19.60
2018-04-19T22:48:05.663Z,19.50
2018-04-19T22:50:33.910Z,19.40
2018-04-19T22:53:01.483Z,19.40
2018-04-19T22:55:29.052Z,19.40
2018-04-19T22:57:56.719Z,19.30
2018-04-19T23:00:26.105Z,19.30
2018-04-19T23:02:53.571Z,19.20
2018-04-19T23:05:21.092Z,19.20
2018-04-19T23:07:49.312Z,19.10
2018-04-19T23:10:17.554Z,19.00
2018-04-19T23:12:45.027Z,19.00
2018-04-19T23:15:12.497Z,19.00
2018-04-19T23:17:40.068Z,19.00
2018-04-19T23:20:07.534Z,19.00
2018-04-19T23:22:35.783Z,18.80
2018-04-19T23:25:03.308Z,18.80
2018-04-19T23:27:31.499Z,18.80
2018-04-19T23:29:58.956Z,18.80
2018-04-19T23:32:26.441Z,18.80
2018-04-19T23:34:54.687Z,18.70
2018-04-19T23:37:22.262Z,18.60
2018-04-19T23:39:49.835Z,18.60
2018-04-19T23:42:18.076Z,18.50
2018-04-19T23:44:45.537Z,18.40
2018-04-19T23:47:13.000Z,18.40
2018-04-19T23:49:41.994Z,18.30
2018-04-19T23:52:10.966Z,18.30
2018-04-19T23:54:38.447Z,18.30
2018-04-19T23:57:05.911Z,18.40
2018-04-19T23:59:33.403Z,18.30
